Ravendale, CA

11:58 PM PDT on August 29, 2014 (GMT -0700)
RAWS RAVENDALE CA US | Change Station
CLOSE
Current Station
Personal Weather Station
Location: Ravendale, CA
Elevation: 5450 ft
Nearby Weather Stations

Elev 5450 ft 40.73 °N, 120.32 °W | Updated 59 minutes ago

Clear
Clear
65 °F
Feels Like 65 °F
N
4
Wind Variable Wind from WSW
Gusts 9.0 mph

Today
High -- | Low -- °F
--% Chance of Precip.
Yesterday
High -- | Low -- °F
Precip. -- in
6:25 AM 7:38 PM
Waxing Crescent, 19% visible
Pressure 29.90 in
Visibility 9.0 miles
Clouds Clear
Dew Point 35 °F
Humidity 33%
Rainfall 0.00 in
Snow Depth Not available.
UV 0 out of 12
Pollen 8.60 out of 12
Air Quality Not available.
Flu Activity Not available.
METAR KAAT 300655Z AUTO 27006KT 9SM CLR 17/02 A3004 RMK AO2 SLP125 T01720022

More Conditions Fewer Conditions

Pressure 29.90 in
Visibility 9.0 miles
Clouds Clear
Dew Point 35 °F
Humidity 33%
Rainfall 0.00 in
Snow Depth Not available.
UV 0 out of 12
Pollen 8.60 out of 12
Air Quality Not available.
Flu Activity Not available.
METAR KAAT 300655Z AUTO 27006KT 9SM CLR 17/02 A3004 RMK AO2 SLP125 T01720022

More Conditions Fewer Conditions

10-Day Weather Forecast

Almanac

Astronomy

Aug. 29, 2014 Rise Set
Actual Time 6:25 AM PDT 7:38 PM PDT
Civil Twilight 5:56 AM PDT 8:06 PM PDT
Nautical Twilight 5:22 AM PDT 8:40 PM PDT
Astronomical Twilight 4:47 AM PDT 9:15 PM PDT
Moon 10:21 AM PDT (8/29) 9:36 PM PDT (8/29)
Length of Visible Light 14h 09m
Length of Day
13h 12m
Tomorrow will be 2m 35s shorter.
Waxing Crescent, 19% of the Moon is Illuminated
Aug 30
Waxing Crescent
Sep 2
First Quarter
Sep 8
Full
Sep 15
Last Quarter
Sep 24
New

Community

WunderPhotos

Upload Photos

1,748,462 photos uploaded!

Nearby

Snow Depth

Station Depth Elevation
Adin Mountain 0 in 6200 ft
Cedar Pass 0 in 7100 ft
CSS Lab 2 in 6900 ft
Tahoe City Cross 0 in 6750 ft
Rubicon #2 0 in 7500 ft

Earthquake Activity

City Distance Mag. Time & Date
Lakeview, Oregon 79 miles 2.8 3:14 PM PDT
2014-08-29
Lakeview, Oregon 78 miles 2.7 2:21 PM PDT
2014-08-29
Lakeview, Oregon 80 miles 3.0 10:47 AM PDT
2014-08-29
Lakeview, Oregon 79 miles 2.5 5:31 AM PDT
2014-08-29
Minimum magnitude displayed is 2.5.

Coastal Water Temperatures

Place Temperature
No Stations Reporting

Nearby Weather Stations